createdAt,value
2019-01-29T00:01:21.948Z,7.27
2019-01-29T00:06:14.761Z,5.60
2019-01-29T00:11:07.120Z,5.47
2019-01-29T00:15:59.817Z,5.90
2019-01-29T00:20:52.585Z,5.93
2019-01-29T00:25:44.784Z,5.70
2019-01-29T00:30:37.285Z,6.37
2019-01-29T00:35:29.824Z,6.07
2019-01-29T00:40:22.349Z,7.20
2019-01-29T00:45:17.000Z,6.37
2019-01-29T00:50:11.870Z,6.03
2019-01-29T00:55:07.004Z,6.40
2019-01-29T00:59:59.585Z,7.40
2019-01-29T01:04:52.480Z,6.97
2019-01-29T01:09:45.120Z,7.03
2019-01-29T01:14:37.569Z,7.67
2019-01-29T01:19:30.324Z,8.30
2019-01-29T01:24:23.152Z,8.40
2019-01-29T01:29:15.548Z,9.30
2019-01-29T01:34:08.137Z,7.87
2019-01-29T01:39:00.851Z,8.00
2019-01-29T01:43:53.404Z,7.80
2019-01-29T01:48:45.744Z,6.83
2019-01-29T01:53:38.168Z,6.60
2019-01-29T01:58:30.965Z,13.33
2019-01-29T02:03:23.456Z,7.47
2019-01-29T02:08:15.945Z,9.13
2019-01-29T02:13:08.625Z,9.97
2019-01-29T02:18:01.436Z,8.77
2019-01-29T02:22:53.866Z,8.27
2019-01-29T02:27:46.382Z,7.43
2019-01-29T02:32:38.764Z,7.00
2019-01-29T02:37:31.094Z,7.03
2019-01-29T02:42:23.533Z,7.37
2019-01-29T02:47:16.025Z,8.27
2019-01-29T02:52:08.973Z,8.03
2019-01-29T02:57:01.372Z,9.47
2019-01-29T03:01:53.845Z,10.57
2019-01-29T03:06:46.596Z,9.37
2019-01-29T03:11:39.129Z,11.23
2019-01-29T03:16:31.498Z,10.17
2019-01-29T03:21:24.279Z,10.00
2019-01-29T03:26:16.758Z,10.40
2019-01-29T03:31:09.220Z,11.53
2019-01-29T03:36:01.835Z,10.60
2019-01-29T03:40:54.052Z,10.90
2019-01-29T03:45:46.972Z,9.27
2019-01-29T03:50:39.549Z,10.87
2019-01-29T03:55:32.005Z,10.73
2019-01-29T04:00:27.282Z,11.20
2019-01-29T04:05:19.844Z,11.57
2019-01-29T04:10:15.849Z,10.60
2019-01-29T04:15:11.722Z,11.10
2019-01-29T04:20:06.401Z,10.43
2019-01-29T04:24:58.784Z,11.67
2019-01-29T04:29:51.339Z,10.93
2019-01-29T04:34:44.117Z,11.37
2019-01-29T04:39:36.567Z,11.53
2019-01-29T04:44:29.219Z,11.10
2019-01-29T04:49:21.736Z,10.97
2019-01-29T04:54:14.064Z,10.97
2019-01-29T04:59:06.626Z,11.33
2019-01-29T05:03:58.993Z,11.47
2019-01-29T05:08:51.533Z,11.97
2019-01-29T05:13:44.095Z,11.87
2019-01-29T05:18:36.802Z,12.30
2019-01-29T05:23:29.745Z,12.20
2019-01-29T05:28:22.244Z,24.43
2019-01-29T05:33:14.626Z,12.17
2019-01-29T05:38:07.295Z,13.07
2019-01-29T05:42:59.865Z,11.77
2019-01-29T05:47:52.452Z,11.23
2019-01-29T05:52:44.953Z,11.83
2019-01-29T05:57:37.748Z,11.87
2019-01-29T06:02:30.377Z,13.17
2019-01-29T06:07:22.713Z,13.30
2019-01-29T06:12:15.339Z,13.00
2019-01-29T06:17:07.737Z,12.03
2019-01-29T06:22:00.248Z,12.23
2019-01-29T06:26:52.817Z,12.60
2019-01-29T06:31:45.597Z,12.17
2019-01-29T06:36:38.089Z,12.13
2019-01-29T06:41:31.940Z,13.20
2019-01-29T06:46:24.284Z,16.30
2019-01-29T06:51:16.922Z,16.97
2019-01-29T06:56:09.674Z,15.13
2019-01-29T07:01:02.376Z,24.93
2019-01-29T07:05:54.933Z,17.20
2019-01-29T07:10:47.421Z,12.33
2019-01-29T07:15:53.629Z,12.13
2019-01-29T07:20:46.256Z,11.97
2019-01-29T07:25:38.838Z,13.60
2019-01-29T07:30:31.637Z,15.07
2019-01-29T07:35:24.057Z,13.80
2019-01-29T07:40:16.807Z,13.47
2019-01-29T07:45:12.912Z,10.93
2019-01-29T07:50:08.237Z,11.60
2019-01-29T07:55:00.894Z,12.40
2019-01-29T07:59:53.380Z,11.43
2019-01-29T08:04:46.069Z,11.20
2019-01-29T08:09:38.597Z,12.00
2019-01-29T08:14:31.496Z,11.93
2019-01-29T08:19:24.013Z,11.93
2019-01-29T08:24:16.666Z,12.10
2019-01-29T08:29:09.089Z,11.20
2019-01-29T08:34:01.834Z,10.57
2019-01-29T08:38:54.338Z,11.70
2019-01-29T08:43:46.725Z,12.00
2019-01-29T08:48:39.040Z,10.83
2019-01-29T08:53:31.643Z,10.20
2019-01-29T08:58:27.261Z,11.70
2019-01-29T09:03:18.328Z,10.40
2019-01-29T09:08:10.789Z,10.67
2019-01-29T09:13:03.192Z,16.33
2019-01-29T09:17:55.768Z,15.00
2019-01-29T09:22:48.160Z,14.60
2019-01-29T09:27:40.977Z,11.27
2019-01-29T09:32:33.353Z,9.90
2019-01-29T09:37:25.705Z,8.13
2019-01-29T09:42:19.266Z,11.07
2019-01-29T09:47:11.960Z,8.87
2019-01-29T09:52:04.608Z,12.27
2019-01-29T09:56:57.325Z,9.57
2019-01-29T10:01:50.294Z,7.50
2019-01-29T10:06:42.736Z,8.30
2019-01-29T10:11:35.173Z,8.93
2019-01-29T10:16:27.708Z,7.30
2019-01-29T10:21:20.488Z,6.60
2019-01-29T10:26:12.888Z,8.00
2019-01-29T10:31:05.640Z,7.37
2019-01-29T10:35:58.655Z,7.30
2019-01-29T10:40:51.010Z,8.13
2019-01-29T10:45:43.592Z,6.90
2019-01-29T10:50:36.322Z,9.33
2019-01-29T10:55:29.134Z,7.27
2019-01-29T11:00:27.667Z,7.57
2019-01-29T11:05:21.217Z,8.53
2019-01-29T11:10:16.245Z,7.57
2019-01-29T11:15:20.761Z,6.47
2019-01-29T11:20:16.010Z,6.43
2019-01-29T11:25:17.342Z,5.20
2019-01-29T11:30:13.192Z,6.27
2019-01-29T11:35:09.237Z,8.13
2019-01-29T11:40:01.924Z,9.17
2019-01-29T11:44:54.453Z,8.40
2019-01-29T11:49:47.001Z,10.23
2019-01-29T11:54:39.743Z,7.80
2019-01-29T11:59:32.249Z,8.97
2019-01-29T12:04:24.513Z,6.70
2019-01-29T12:09:16.954Z,8.43
2019-01-29T12:14:09.471Z,7.40
2019-01-29T12:19:02.256Z,7.60
2019-01-29T12:23:54.964Z,7.90
2019-01-29T12:28:47.653Z,7.57
2019-01-29T12:33:40.208Z,8.93
2019-01-29T12:38:32.738Z,9.80
2019-01-29T12:43:25.121Z,9.13
2019-01-29T12:48:17.900Z,10.57
2019-01-29T12:53:12.193Z,9.40
2019-01-29T12:58:04.979Z,9.60
2019-01-29T13:02:57.382Z,7.77
2019-01-29T13:07:50.144Z,8.10
2019-01-29T13:12:42.569Z,6.90
2019-01-29T13:17:34.877Z,8.00
2019-01-29T13:22:27.265Z,8.30
2019-01-29T13:27:19.649Z,8.70
2019-01-29T13:32:12.301Z,7.00
2019-01-29T13:37:04.884Z,6.70
2019-01-29T13:41:57.228Z,7.67
2019-01-29T13:46:49.865Z,7.93
2019-01-29T13:51:42.309Z,10.43
2019-01-29T13:56:38.911Z,8.70
2019-01-29T14:01:28.816Z,9.67
2019-01-29T14:06:21.286Z,8.70
2019-01-29T14:11:13.741Z,17.80
2019-01-29T14:16:07.347Z,11.30
2019-01-29T14:21:00.066Z,9.70
2019-01-29T14:25:52.761Z,12.17
2019-01-29T14:30:45.426Z,8.20
2019-01-29T14:35:38.098Z,8.00
2019-01-29T14:40:32.505Z,8.00
2019-01-29T14:45:27.456Z,8.00
2019-01-29T14:50:20.171Z,9.43
2019-01-29T14:55:12.977Z,9.13
2019-01-29T15:00:08.605Z,8.37
2019-01-29T15:05:01.130Z,7.03
2019-01-29T15:09:53.597Z,6.53
2019-01-29T15:14:46.029Z,6.73
2019-01-29T15:19:40.311Z,6.53
2019-01-29T15:24:33.141Z,7.00
2019-01-29T15:29:25.681Z,6.70
2019-01-29T15:34:18.116Z,6.23
2019-01-29T15:39:10.574Z,6.13
2019-01-29T15:44:03.294Z,6.67
2019-01-29T15:48:55.689Z,6.67
2019-01-29T15:53:48.235Z,8.07
2019-01-29T15:58:40.755Z,8.57
2019-01-29T16:03:33.200Z,9.53
2019-01-29T16:08:25.749Z,9.20
2019-01-29T16:13:18.365Z,8.43
2019-01-29T16:18:12.264Z,10.57
2019-01-29T16:23:05.538Z,13.87
2019-01-29T16:27:59.118Z,13.43
2019-01-29T16:32:51.814Z,14.50
2019-01-29T16:37:44.337Z,14.17
2019-01-29T16:42:36.772Z,13.67
2019-01-29T16:47:29.508Z,13.23
2019-01-29T16:52:22.170Z,9.67
2019-01-29T16:57:14.868Z,13.53
2019-01-29T17:02:07.394Z,13.17
2019-01-29T17:07:00.437Z,12.20
2019-01-29T17:11:52.985Z,16.20
2019-01-29T17:16:45.686Z,13.87
2019-01-29T17:21:38.274Z,15.27
2019-01-29T17:26:31.131Z,26.00
2019-01-29T17:31:23.425Z,24.70
2019-01-29T17:36:15.985Z,23.73
2019-01-29T17:45:40.740Z,17.27
2019-01-29T17:50:36.089Z,17.10
2019-01-29T17:55:29.509Z,22.10
2019-01-29T18:00:26.405Z,16.30
2019-01-29T18:05:19.198Z,13.60
2019-01-29T18:10:14.590Z,11.40
2019-01-29T18:15:12.652Z,17.67
2019-01-29T18:20:06.555Z,20.07
2019-01-29T18:24:59.108Z,20.73
2019-01-29T18:29:51.520Z,34.90
2019-01-29T18:34:44.265Z,32.53
2019-01-29T18:39:36.805Z,37.43
2019-01-29T18:44:29.308Z,48.07
2019-01-29T18:49:21.990Z,45.43
2019-01-29T18:54:14.644Z,31.93
2019-01-29T18:59:07.725Z,31.10
2019-01-29T19:04:00.680Z,31.43
2019-01-29T19:08:53.373Z,38.00
2019-01-29T19:13:45.830Z,38.00
2019-01-29T19:18:38.521Z,25.30
2019-01-29T19:23:31.296Z,26.23
2019-01-29T19:28:23.613Z,25.07
2019-01-29T19:33:16.068Z,29.17
2019-01-29T19:38:08.621Z,24.50
2019-01-29T19:43:01.042Z,29.80
2019-01-29T19:47:53.621Z,29.00
2019-01-29T19:52:46.337Z,22.23
2019-01-29T19:57:39.226Z,17.83
2019-01-29T20:02:31.542Z,19.80
2019-01-29T20:07:24.126Z,20.80
2019-01-29T20:12:16.852Z,19.83
2019-01-29T20:17:09.563Z,18.53
2019-01-29T20:22:01.973Z,17.07
2019-01-29T20:26:54.645Z,23.53
2019-01-29T20:31:47.330Z,30.70
2019-01-29T20:36:40.137Z,47.23
2019-01-29T20:41:32.571Z,34.37
2019-01-29T20:46:25.289Z,28.70
2019-01-29T20:51:17.797Z,23.87
2019-01-29T20:56:10.489Z,19.03
2019-01-29T21:01:03.987Z,23.23
2019-01-29T21:05:56.500Z,11.60
2019-01-29T21:10:49.404Z,15.47
2019-01-29T21:15:42.080Z,18.03
2019-01-29T21:20:34.568Z,8.47
2019-01-29T21:25:26.925Z,10.50
2019-01-29T21:30:25.922Z,8.47
2019-01-29T21:35:18.420Z,9.50
2019-01-29T21:40:13.508Z,7.93
2019-01-29T21:45:12.055Z,8.33
2019-01-29T21:50:22.248Z,6.73
2019-01-29T21:55:16.014Z,6.67
2019-01-29T22:00:14.002Z,5.93
2019-01-29T22:05:09.489Z,5.83
2019-01-29T22:10:02.293Z,5.90
2019-01-29T22:14:54.801Z,5.77
2019-01-29T22:19:47.449Z,6.57
2019-01-29T22:24:40.072Z,5.43
2019-01-29T22:29:32.731Z,5.73
2019-01-29T22:34:25.476Z,6.97
2019-01-29T22:39:18.409Z,8.03
2019-01-29T22:44:10.773Z,7.20
2019-01-29T22:49:03.237Z,9.50
2019-01-29T22:53:55.749Z,8.20
2019-01-29T22:58:48.285Z,7.67
2019-01-29T23:03:43.352Z,8.73
2019-01-29T23:08:36.084Z,7.47
2019-01-29T23:13:28.940Z,6.00
2019-01-29T23:18:21.414Z,5.87
2019-01-29T23:23:14.148Z,5.80
2019-01-29T23:28:06.812Z,5.67
2019-01-29T23:32:59.572Z,6.40
2019-01-29T23:37:51.949Z,5.30
2019-01-29T23:42:44.360Z,5.13
2019-01-29T23:47:36.955Z,4.73
2019-01-29T23:52:29.413Z,4.80
2019-01-29T23:57:21.804Z,4.50
